createdAt,value
2023-10-24T00:00:34.967Z,8.50
2023-10-24T00:03:04.204Z,8.17
2023-10-24T00:05:31.988Z,7.83
2023-10-24T00:07:59.647Z,8.13
2023-10-24T00:10:27.332Z,8.50
2023-10-24T00:12:55.207Z,8.13
2023-10-24T00:15:23.141Z,8.87
2023-10-24T00:17:50.857Z,8.73
2023-10-24T00:20:20.119Z,8.83
2023-10-24T00:22:47.782Z,8.40
2023-10-24T00:25:16.194Z,8.60
2023-10-24T00:27:43.977Z,8.30
2023-10-24T00:30:12.330Z,8.47
2023-10-24T00:32:40.080Z,8.47
2023-10-24T00:35:08.278Z,10.27
2023-10-24T00:37:37.404Z,8.43
2023-10-24T00:40:06.068Z,8.73
2023-10-24T00:42:33.726Z,9.23
2023-10-24T00:45:01.380Z,9.13
2023-10-24T00:47:29.393Z,8.60
2023-10-24T00:49:57.288Z,9.97
2023-10-24T00:52:25.250Z,8.47
2023-10-24T00:54:54.763Z,10.10
2023-10-24T00:57:22.901Z,9.43
2023-10-24T00:59:51.607Z,9.90
2023-10-24T01:02:20.692Z,8.70
2023-10-24T01:04:50.139Z,10.20
2023-10-24T01:07:17.844Z,10.57
2023-10-24T01:09:45.770Z,10.17
2023-10-24T01:12:15.039Z,10.83
2023-10-24T01:14:43.014Z,11.43
2023-10-24T01:17:14.837Z,10.73
2023-10-24T01:19:42.623Z,10.60
2023-10-24T01:22:11.718Z,10.80
2023-10-24T01:24:40.127Z,10.63
2023-10-24T01:27:07.980Z,10.93
2023-10-24T01:29:36.625Z,11.33
2023-10-24T01:32:04.693Z,11.43
2023-10-24T01:34:32.496Z,10.93
2023-10-24T01:37:00.209Z,11.57
2023-10-24T01:39:29.192Z,11.67
2023-10-24T01:41:56.844Z,10.50
2023-10-24T01:44:24.583Z,11.47
2023-10-24T01:46:52.265Z,11.73
2023-10-24T01:49:22.247Z,11.13
2023-10-24T01:51:50.482Z,11.80
2023-10-24T01:54:18.141Z,11.77
2023-10-24T01:56:47.405Z,12.53
2023-10-24T01:59:15.054Z,11.50
2023-10-24T02:01:43.463Z,13.00
2023-10-24T02:04:14.884Z,11.30
2023-10-24T02:06:42.945Z,12.33
2023-10-24T02:09:10.657Z,12.27
2023-10-24T02:11:38.313Z,12.23
2023-10-24T02:14:07.382Z,11.97
2023-10-24T02:16:35.075Z,11.90
2023-10-24T02:19:03.085Z,12.30
2023-10-24T02:21:30.765Z,11.40
2023-10-24T02:23:58.853Z,12.20
2023-10-24T02:26:26.934Z,11.50
2023-10-24T02:28:54.661Z,12.27
2023-10-24T02:31:23.784Z,12.73
2023-10-24T02:33:51.790Z,12.03
2023-10-24T02:36:19.488Z,11.27
2023-10-24T02:38:47.163Z,11.33
2023-10-24T02:41:15.006Z,11.03
2023-10-24T02:43:42.767Z,12.23
2023-10-24T02:46:10.530Z,12.17
2023-10-24T02:48:39.730Z,11.43
2023-10-24T02:51:07.503Z,12.43
2023-10-24T02:53:35.162Z,12.57
2023-10-24T02:56:03.836Z,13.30
2023-10-24T02:58:31.668Z,13.00
2023-10-24T03:01:05.948Z,12.90
2023-10-24T03:03:34.729Z,12.53
2023-10-24T03:06:03.919Z,12.50
2023-10-24T03:08:31.598Z,13.03
2023-10-24T03:10:59.339Z,13.43
2023-10-24T03:13:27.039Z,14.37
2023-10-24T03:15:54.695Z,13.00
2023-10-24T03:18:22.376Z,13.50
2023-10-24T03:20:50.039Z,13.07
2023-10-24T03:23:19.187Z,12.50
2023-10-24T03:25:46.852Z,13.17
2023-10-24T03:28:15.229Z,13.10
2023-10-24T03:30:42.966Z,13.67
2023-10-24T03:33:10.811Z,13.40
2023-10-24T03:35:38.863Z,12.77
2023-10-24T03:38:06.493Z,12.90
2023-10-24T03:40:35.551Z,14.77
2023-10-24T03:43:03.222Z,13.73
2023-10-24T03:45:30.990Z,13.97
2023-10-24T03:47:58.821Z,13.07
2023-10-24T03:50:26.619Z,13.47
2023-10-24T03:52:54.356Z,14.17
2023-10-24T03:55:22.332Z,12.70
2023-10-24T03:57:51.339Z,14.80
2023-10-24T04:00:19.588Z,13.50
2023-10-24T04:02:48.144Z,14.17
2023-10-24T04:05:16.035Z,15.10
2023-10-24T04:07:43.743Z,15.33
2023-10-24T04:10:12.872Z,15.27
2023-10-24T04:12:40.616Z,14.00
2023-10-24T04:15:11.437Z,14.83
2023-10-24T04:17:39.305Z,14.83
2023-10-24T04:20:09.123Z,14.60
2023-10-24T04:22:37.083Z,15.40
2023-10-24T04:25:05.657Z,14.67
2023-10-24T04:27:33.340Z,14.23
2023-10-24T04:30:01.664Z,14.50
2023-10-24T04:32:31.867Z,14.73
2023-10-24T04:35:00.391Z,15.77
2023-10-24T04:37:28.178Z,16.40
2023-10-24T04:39:56.044Z,15.23
2023-10-24T04:42:24.713Z,15.57
2023-10-24T04:44:52.436Z,16.40
2023-10-24T04:47:20.117Z,15.67
2023-10-24T04:49:49.211Z,15.67
2023-10-24T04:52:17.029Z,15.80
2023-10-24T04:54:45.488Z,16.17
2023-10-24T04:57:13.254Z,16.83
2023-10-24T04:59:40.914Z,16.67
2023-10-24T05:02:08.639Z,16.53
2023-10-24T05:04:36.331Z,16.30
2023-10-24T05:07:06.926Z,16.90
2023-10-24T05:09:36.271Z,16.07
2023-10-24T05:12:04.298Z,15.87
2023-10-24T05:14:32.069Z,16.37
2023-10-24T05:16:59.976Z,16.57
2023-10-24T05:19:27.908Z,16.87
2023-10-24T05:21:55.805Z,17.67
2023-10-24T05:24:24.822Z,17.20
2023-10-24T05:26:52.467Z,18.97
2023-10-24T05:29:20.155Z,18.33
2023-10-24T05:31:47.976Z,17.43
2023-10-24T05:34:15.765Z,19.03
2023-10-24T05:36:43.638Z,21.27
2023-10-24T05:39:11.472Z,20.67
2023-10-24T05:41:40.478Z,20.47
2023-10-24T05:44:09.361Z,21.23
2023-10-24T05:46:37.062Z,21.33
2023-10-24T05:49:04.886Z,20.77
2023-10-24T05:51:32.613Z,20.97
2023-10-24T05:54:01.081Z,21.40
2023-10-24T05:56:28.805Z,21.77
2023-10-24T05:58:57.880Z,19.73
2023-10-24T06:01:25.813Z,21.43
2023-10-24T06:03:53.605Z,20.90
2023-10-24T06:06:21.250Z,21.40
2023-10-24T06:08:48.930Z,21.13
2023-10-24T06:11:17.157Z,21.00
2023-10-24T06:13:44.829Z,20.23
2023-10-24T06:16:18.230Z,20.00
2023-10-24T06:18:46.104Z,20.80
2023-10-24T06:21:14.479Z,21.47
2023-10-24T06:23:42.119Z,20.37
2023-10-24T06:26:14.320Z,19.97
2023-10-24T06:28:42.057Z,18.77
2023-10-24T06:31:09.814Z,18.77
2023-10-24T06:33:40.000Z,19.37
2023-10-24T06:36:08.740Z,20.50
2023-10-24T06:38:36.408Z,19.40
2023-10-24T06:41:04.098Z,18.50
2023-10-24T06:43:31.790Z,19.63
2023-10-24T06:45:59.495Z,19.27
2023-10-24T06:48:27.149Z,18.83
2023-10-24T06:50:56.136Z,18.70
2023-10-24T06:53:23.833Z,20.63
2023-10-24T06:55:51.542Z,19.00
2023-10-24T06:58:19.260Z,19.27
2023-10-24T07:00:47.245Z,18.87
2023-10-24T07:03:15.073Z,18.00
2023-10-24T07:05:42.815Z,19.00
2023-10-24T07:08:11.889Z,19.53
2023-10-24T07:10:39.661Z,18.20
2023-10-24T07:13:07.307Z,19.13
2023-10-24T07:15:34.960Z,18.73
2023-10-24T07:18:02.614Z,20.30
2023-10-24T07:20:30.275Z,19.57
2023-10-24T07:22:57.965Z,19.87
2023-10-24T07:25:27.543Z,19.53
2023-10-24T07:27:55.337Z,19.13
2023-10-24T07:30:24.017Z,18.43
2023-10-24T07:32:51.747Z,20.70
2023-10-24T07:35:19.493Z,19.57
2023-10-24T07:37:47.184Z,18.00
2023-10-24T07:40:15.174Z,18.20
2023-10-24T07:42:44.200Z,18.93
2023-10-24T07:45:13.322Z,17.70
2023-10-24T07:47:41.147Z,19.37
2023-10-24T07:50:10.562Z,17.90
2023-10-24T07:52:38.292Z,17.00
2023-10-24T07:55:06.900Z,16.67
2023-10-24T07:57:35.076Z,19.03
2023-10-24T08:00:04.611Z,19.23
2023-10-24T08:02:32.288Z,16.27
2023-10-24T08:05:00.016Z,16.67
2023-10-24T08:07:27.812Z,16.80
2023-10-24T08:09:55.621Z,16.90
2023-10-24T08:12:23.490Z,20.47
2023-10-24T08:14:51.509Z,16.40
2023-10-24T08:17:20.756Z,17.10
2023-10-24T08:19:48.556Z,15.33
2023-10-24T08:22:16.215Z,16.83
2023-10-24T08:24:44.721Z,16.00
2023-10-24T08:27:13.642Z,17.00
2023-10-24T08:29:41.557Z,14.93
2023-10-24T08:32:14.791Z,15.83
2023-10-24T08:34:45.081Z,14.33
2023-10-24T08:37:13.135Z,14.83
2023-10-24T08:39:41.333Z,15.70
2023-10-24T08:42:11.922Z,15.10
2023-10-24T08:44:40.787Z,15.77
2023-10-24T08:47:09.457Z,16.53
2023-10-24T08:49:38.570Z,17.20
2023-10-24T08:52:22.501Z,16.60
2023-10-24T08:54:54.772Z,17.23
2023-10-24T08:57:26.984Z,17.20
2023-10-24T08:59:57.270Z,18.00
2023-10-24T09:02:25.181Z,18.50
2023-10-24T09:04:53.508Z,17.20
2023-10-24T09:07:22.566Z,18.00
2023-10-24T09:09:50.250Z,17.70
2023-10-24T09:12:18.002Z,17.63
2023-10-24T09:14:54.425Z,16.70
2023-10-24T09:17:24.780Z,18.00
2023-10-24T09:19:53.241Z,17.80
2023-10-24T09:22:22.335Z,17.17
2023-10-24T09:24:51.143Z,17.53
2023-10-24T09:27:24.783Z,17.97
2023-10-24T09:29:53.286Z,18.03
2023-10-24T09:32:22.085Z,18.97
2023-10-24T09:34:50.263Z,18.73
2023-10-24T09:37:18.323Z,18.43
2023-10-24T09:39:55.244Z,18.83
2023-10-24T09:42:29.195Z,18.20
2023-10-24T09:45:01.475Z,18.17
2023-10-24T09:47:29.779Z,19.57
2023-10-24T09:49:59.539Z,17.07
2023-10-24T09:52:30.014Z,16.63
2023-10-24T09:55:00.741Z,17.17
2023-10-24T09:57:29.561Z,18.43
2023-10-24T10:00:00.920Z,15.63
2023-10-24T10:02:29.928Z,16.27
2023-10-24T10:04:57.950Z,15.30
2023-10-24T10:07:27.629Z,15.13
2023-10-24T10:09:56.217Z,14.10
2023-10-24T10:12:26.898Z,14.63
2023-10-24T10:15:14.949Z,13.87
2023-10-24T10:17:53.882Z,16.53
2023-10-24T10:20:39.907Z,16.03
2023-10-24T10:23:21.238Z,14.43
2023-10-24T10:26:00.003Z,15.13
2023-10-24T10:28:51.010Z,14.47
2023-10-24T10:32:35.577Z,13.90
2023-10-24T10:34:20.408Z,15.47
2023-10-24T10:36:55.299Z,14.20
2023-10-24T10:39:22.980Z,14.67
2023-10-24T10:41:50.668Z,12.40
2023-10-24T10:44:43.609Z,15.10
2023-10-24T10:47:15.985Z,14.30
2023-10-24T10:49:45.954Z,14.07
2023-10-24T10:52:40.789Z,12.33
2023-10-24T10:55:25.475Z,10.77
2023-10-24T10:58:04.319Z,10.67
2023-10-24T11:00:45.030Z,10.83
2023-10-24T11:03:33.464Z,11.00
2023-10-24T11:06:09.440Z,11.20
2023-10-24T11:08:38.905Z,12.50
2023-10-24T11:11:10.518Z,13.10
2023-10-24T11:13:41.665Z,11.67
2023-10-24T11:16:25.393Z,12.20
2023-10-24T11:18:58.371Z,13.73
2023-10-24T11:21:26.022Z,9.63
2023-10-24T11:23:54.934Z,11.53
2023-10-24T11:26:22.705Z,11.13
2023-10-24T11:28:52.792Z,12.13
2023-10-24T11:31:23.678Z,10.50
2023-10-24T11:33:51.911Z,11.17
2023-10-24T11:36:19.727Z,11.23
2023-10-24T11:38:48.885Z,9.10
2023-10-24T11:41:16.766Z,8.87
2023-10-24T11:43:46.283Z,8.60
2023-10-24T11:46:14.150Z,9.03
2023-10-24T11:48:43.225Z,8.73
2023-10-24T11:51:10.932Z,8.27
2023-10-24T11:53:38.632Z,10.23
2023-10-24T11:56:09.726Z,9.43
2023-10-24T11:58:37.622Z,10.10
2023-10-24T12:01:05.436Z,9.43
2023-10-24T12:03:47.213Z,8.33
2023-10-24T12:06:18.131Z,7.37
2023-10-24T12:08:46.079Z,7.20
2023-10-24T12:11:14.837Z,7.03
2023-10-24T12:13:42.692Z,7.07
2023-10-24T12:16:10.754Z,6.67
2023-10-24T12:18:39.619Z,6.60
2023-10-24T12:21:11.415Z,6.67
2023-10-24T12:23:40.379Z,6.07
2023-10-24T12:26:08.258Z,5.97
2023-10-24T12:28:37.560Z,6.20
2023-10-24T12:31:06.318Z,6.40
2023-10-24T12:33:34.309Z,6.97
2023-10-24T12:36:02.271Z,6.67
2023-10-24T12:38:32.317Z,7.00
2023-10-24T12:41:00.109Z,8.27
2023-10-24T12:43:27.787Z,6.37
2023-10-24T12:45:55.782Z,6.17
2023-10-24T12:48:23.686Z,6.03
2023-10-24T12:50:51.380Z,6.10
2023-10-24T12:53:19.031Z,5.80
2023-10-24T12:55:48.319Z,6.10
2023-10-24T12:58:16.020Z,5.50
2023-10-24T13:00:46.323Z,6.70
2023-10-24T13:03:17.945Z,6.87
2023-10-24T13:05:46.775Z,5.63
2023-10-24T13:08:14.534Z,5.60
2023-10-24T13:10:42.325Z,4.43
2023-10-24T13:13:11.485Z,4.40
2023-10-24T13:15:39.147Z,4.47
2023-10-24T13:18:07.084Z,4.90
2023-10-24T13:20:34.812Z,4.87
2023-10-24T13:23:02.513Z,5.23
2023-10-24T13:25:31.014Z,5.90
2023-10-24T13:27:58.790Z,4.80
2023-10-24T13:30:40.049Z,5.50
2023-10-24T13:33:09.134Z,4.70
2023-10-24T13:38:07.862Z,4.83
2023-10-24T13:40:35.609Z,5.17
2023-10-24T13:43:03.770Z,5.97
2023-10-24T13:45:32.916Z,6.07
2023-10-24T13:48:00.956Z,6.67
2023-10-24T13:50:28.815Z,5.63
2023-10-24T13:52:56.590Z,5.70
2023-10-24T13:55:24.315Z,6.37
2023-10-24T13:57:52.417Z,7.10
2023-10-24T14:00:20.294Z,6.47
2023-10-24T14:02:49.395Z,8.10
2023-10-24T14:05:17.249Z,6.70
2023-10-24T14:07:45.637Z,7.80
2023-10-24T14:10:13.560Z,6.77
2023-10-24T14:12:41.300Z,6.17
2023-10-24T14:15:09.445Z,5.70
2023-10-24T14:17:37.182Z,6.47
2023-10-24T14:20:07.835Z,5.00
2023-10-24T14:22:36.491Z,5.70
2023-10-24T14:25:04.702Z,5.90
2023-10-24T14:27:32.379Z,6.10
2023-10-24T14:30:00.303Z,7.20
2023-10-24T14:32:28.053Z,6.07
2023-10-24T14:34:56.002Z,6.90
2023-10-24T14:37:26.052Z,6.77
2023-10-24T14:39:53.772Z,7.00
2023-10-24T14:42:21.486Z,6.50
2023-10-24T14:44:51.064Z,5.87
2023-10-24T14:47:18.807Z,5.73
2023-10-24T14:49:46.613Z,6.70
2023-10-24T14:52:14.335Z,10.50
2023-10-24T14:54:43.456Z,9.10
2023-10-24T14:57:11.600Z,8.23
2023-10-24T14:59:39.385Z,11.17
2023-10-24T15:02:07.858Z,8.93
2023-10-24T15:04:35.714Z,16.40
2023-10-24T15:07:03.399Z,22.37
2023-10-24T15:09:31.185Z,12.00
2023-10-24T15:12:01.032Z,11.47
2023-10-24T15:14:28.750Z,10.93
2023-10-24T15:16:56.548Z,10.30
2023-10-24T15:19:24.276Z,9.43
2023-10-24T15:21:51.958Z,9.73
2023-10-24T15:24:20.988Z,9.40
2023-10-24T15:26:50.485Z,14.27
2023-10-24T15:29:19.662Z,13.50
2023-10-24T15:31:47.558Z,12.23
2023-10-24T15:34:15.285Z,11.67
2023-10-24T15:36:43.069Z,15.00
2023-10-24T15:39:10.792Z,15.17
2023-10-24T15:41:38.502Z,11.90
2023-10-24T15:44:06.563Z,11.93
2023-10-24T15:46:35.703Z,8.93
2023-10-24T15:49:04.379Z,7.83
2023-10-24T15:51:32.078Z,8.50
2023-10-24T15:53:59.744Z,10.53
2023-10-24T15:56:27.489Z,7.00
2023-10-24T15:58:55.278Z,9.70
2023-10-24T16:01:26.823Z,7.80
2023-10-24T16:03:56.183Z,8.20
2023-10-24T16:06:24.135Z,8.07
2023-10-24T16:08:51.948Z,9.17
2023-10-24T16:11:21.037Z,15.80
2023-10-24T16:13:50.223Z,7.90
2023-10-24T16:16:17.917Z,9.20
2023-10-24T16:18:45.664Z,13.47
2023-10-24T16:21:14.674Z,13.87
2023-10-24T16:23:42.414Z,11.90
2023-10-24T16:26:10.992Z,8.77
2023-10-24T16:28:40.420Z,7.13
2023-10-24T16:31:08.858Z,9.17
2023-10-24T16:33:36.572Z,9.23
2023-10-24T16:36:05.124Z,9.47
2023-10-24T16:38:34.323Z,9.97
2023-10-24T16:41:02.484Z,9.67
2023-10-24T16:43:31.546Z,8.53
2023-10-24T16:45:59.600Z,9.77
2023-10-24T16:48:29.278Z,8.53
2023-10-24T16:50:58.139Z,9.80
2023-10-24T16:53:26.515Z,9.10
2023-10-24T16:55:57.144Z,9.37
2023-10-24T16:58:26.147Z,8.87
2023-10-24T17:00:56.197Z,7.17
2023-10-24T17:03:24.292Z,9.30
2023-10-24T17:05:52.123Z,13.67
2023-10-24T17:08:19.849Z,10.37
2023-10-24T17:10:57.920Z,17.40
2023-10-24T17:13:26.120Z,14.57
2023-10-24T17:15:53.888Z,15.07
2023-10-24T17:18:21.838Z,11.60
2023-10-24T17:20:49.507Z,9.50
2023-10-24T17:23:17.289Z,9.27
2023-10-24T17:25:45.020Z,9.37
2023-10-24T17:28:20.529Z,11.10
2023-10-24T17:30:48.772Z,8.43
2023-10-24T17:33:16.598Z,8.60
2023-10-24T17:35:44.710Z,8.90
2023-10-24T17:38:12.492Z,8.10
2023-10-24T17:40:43.629Z,7.50
2023-10-24T17:43:11.377Z,8.50
2023-10-24T17:45:45.373Z,8.33
2023-10-24T17:48:13.348Z,8.07
2023-10-24T17:50:41.874Z,8.77
2023-10-24T17:53:10.061Z,8.07
2023-10-24T17:55:38.536Z,7.70
2023-10-24T17:58:06.728Z,8.07
2023-10-24T18:00:35.426Z,15.97
2023-10-24T18:03:04.998Z,11.90
2023-10-24T18:05:32.749Z,9.37
2023-10-24T18:08:01.910Z,8.93
2023-10-24T18:10:29.706Z,9.50
2023-10-24T18:12:57.838Z,11.30
2023-10-24T18:15:25.508Z,10.90
2023-10-24T18:17:53.241Z,9.03
2023-10-24T18:20:22.537Z,9.00
2023-10-24T18:22:50.305Z,7.97
2023-10-24T18:25:18.224Z,8.20
2023-10-24T18:27:46.579Z,7.50
2023-10-24T18:30:15.226Z,7.80
2023-10-24T18:32:42.977Z,8.33
2023-10-24T18:35:11.754Z,13.43
2023-10-24T18:37:41.094Z,11.97
2023-10-24T18:40:10.207Z,18.67
2023-10-24T18:42:37.925Z,14.23
2023-10-24T18:45:06.768Z,22.70
2023-10-24T18:47:34.461Z,16.20
2023-10-24T18:50:02.241Z,10.77
2023-10-24T18:52:30.049Z,14.23
2023-10-24T18:54:59.171Z,13.13
2023-10-24T18:57:27.030Z,10.60
2023-10-24T19:02:25.659Z,8.20
2023-10-24T19:04:53.344Z,7.27
2023-10-24T19:07:21.072Z,6.83
2023-10-24T19:09:49.287Z,6.90
2023-10-24T19:12:19.175Z,6.80
2023-10-24T19:14:47.529Z,6.13
2023-10-24T19:17:15.976Z,6.90
2023-10-24T19:19:44.667Z,6.87
2023-10-24T19:22:13.127Z,6.83
2023-10-24T19:24:41.330Z,6.33
2023-10-24T19:27:10.578Z,6.67
2023-10-24T19:29:40.135Z,6.83
2023-10-24T19:32:09.107Z,7.10
2023-10-24T19:34:38.903Z,7.20
2023-10-24T19:37:10.018Z,6.93
2023-10-24T19:39:38.260Z,7.33
2023-10-24T19:42:08.146Z,8.10
2023-10-24T19:44:36.584Z,7.17
2023-10-24T19:47:06.678Z,8.27
2023-10-24T19:49:38.012Z,7.33
2023-10-24T19:52:06.566Z,7.37
2023-10-24T19:54:35.037Z,7.00
2023-10-24T19:57:03.060Z,8.33
2023-10-24T19:59:31.815Z,7.47
2023-10-24T20:02:00.162Z,7.97
2023-10-24T20:04:30.401Z,7.73
2023-10-24T20:07:00.775Z,8.20
2023-10-24T20:11:01.978Z,7.60
2023-10-24T20:12:35.959Z,7.50
2023-10-24T20:15:07.947Z,8.43
2023-10-24T20:17:37.711Z,8.40
2023-10-24T20:20:07.901Z,8.90
2023-10-24T20:22:37.128Z,8.40
2023-10-24T20:25:06.295Z,8.90
2023-10-24T20:27:35.428Z,9.87
2023-10-24T20:30:05.633Z,9.57
2023-10-24T20:32:33.929Z,8.70
2023-10-24T20:35:02.279Z,10.23
2023-10-24T20:37:31.418Z,10.30
2023-10-24T20:39:59.608Z,11.43
2023-10-24T20:42:28.691Z,10.90
2023-10-24T20:44:56.861Z,11.70
2023-10-24T20:47:24.874Z,10.80
2023-10-24T20:49:52.629Z,11.63
2023-10-24T20:52:20.418Z,12.10
2023-10-24T20:54:51.293Z,12.87
2023-10-24T20:57:18.948Z,12.50
2023-10-24T20:59:46.676Z,12.80
2023-10-24T21:02:14.367Z,12.33
2023-10-24T21:04:42.992Z,12.13
2023-10-24T21:07:11.715Z,13.10
2023-10-24T21:09:39.545Z,14.33
2023-10-24T21:12:09.826Z,14.33
2023-10-24T21:14:37.590Z,14.60
2023-10-24T21:17:04.635Z,14.10
2023-10-24T21:19:32.432Z,13.63
2023-10-24T21:22:00.198Z,13.93
2023-10-24T21:24:28.737Z,14.03
2023-10-24T21:26:56.805Z,14.93
2023-10-24T21:29:28.272Z,16.23
2023-10-24T21:31:57.106Z,16.33
2023-10-24T21:34:24.847Z,15.37
2023-10-24T21:36:52.602Z,15.90
2023-10-24T21:39:20.769Z,15.93
2023-10-24T21:41:48.417Z,15.60
2023-10-24T21:44:16.072Z,16.77
2023-10-24T21:46:45.204Z,15.40
2023-10-24T21:49:13.234Z,17.20
2023-10-24T21:51:41.003Z,16.63
2023-10-24T21:54:09.035Z,16.67
2023-10-24T21:56:36.724Z,17.90
2023-10-24T21:59:04.402Z,18.33
2023-10-24T22:01:32.235Z,17.50
2023-10-24T22:04:01.367Z,17.70
2023-10-24T22:06:29.241Z,17.30
2023-10-24T22:08:56.934Z,18.50
2023-10-24T22:11:24.679Z,17.57
2023-10-24T22:13:52.405Z,18.23
2023-10-24T22:16:20.237Z,16.77
2023-10-24T22:18:48.020Z,18.80
2023-10-24T22:21:17.548Z,17.53
2023-10-24T22:23:45.547Z,17.20
2023-10-24T22:26:14.021Z,19.03
2023-10-24T22:28:41.738Z,17.30
2023-10-24T22:31:09.481Z,18.20
2023-10-24T22:33:37.254Z,16.93
2023-10-24T22:36:05.950Z,16.57
2023-10-24T22:38:34.941Z,17.23
2023-10-24T22:41:02.621Z,16.33
2023-10-24T22:43:32.495Z,17.43
2023-10-24T22:46:00.271Z,14.90
2023-10-24T22:48:28.033Z,17.57
2023-10-24T22:50:55.709Z,17.90
2023-10-24T22:53:24.071Z,17.27
2023-10-24T22:55:53.109Z,18.23
2023-10-24T22:58:20.844Z,17.77
2023-10-24T23:00:48.587Z,18.97
2023-10-24T23:03:16.480Z,19.17
2023-10-24T23:05:44.882Z,20.30
2023-10-24T23:08:12.603Z,22.37
2023-10-24T23:10:40.462Z,20.10
2023-10-24T23:13:09.635Z,21.67
2023-10-24T23:15:40.409Z,20.13
2023-10-24T23:18:08.228Z,21.23
2023-10-24T23:20:35.883Z,21.20
2023-10-24T23:23:03.554Z,21.40
2023-10-24T23:25:31.256Z,20.70
2023-10-24T23:27:59.219Z,22.83
2023-10-24T23:30:30.586Z,21.60
2023-10-24T23:32:58.380Z,22.90
2023-10-24T23:35:26.290Z,22.97
2023-10-24T23:37:53.969Z,23.53
2023-10-24T23:40:21.817Z,24.30
2023-10-24T23:42:49.554Z,23.83
2023-10-24T23:45:17.424Z,23.27
2023-10-24T23:47:46.539Z,23.73
2023-10-24T23:50:14.237Z,24.47
2023-10-24T23:52:41.955Z,23.67
2023-10-24T23:55:10.347Z,24.07
2023-10-24T23:57:38.056Z,24.43
